Time;durP1;ratioP1;P1;durP2;ratioP2;P2;SDS_P1;SDS_P2;PMS_P1;PMS_P2;Temp;Humidity;BMP_temperature;BMP_pressure;BME280_temperature;BME280_humidity;BME280_pressure;Samples;Min_cycle;Max_cycle;Signal;HPM_P1;HPM_P2
2021/09/13 00:02:01;;;;;;;;;;;15.80;99.90;;;;;;1857697;75;20207;-68
2021/09/13 00:04:28;;;;;;;;;;;15.80;99.90;;;;;;1880174;75;20162;-66
2021/09/13 00:06:55;;;;;;;;;;;15.80;99.90;;;;;;1837594;77;20174;-66
2021/09/13 00:09:22;;;;;;;;;;;15.70;99.90;;;;;;1891755;75;20179;-66
2021/09/13 00:11:49;;;;;;;;;;;15.80;99.90;;;;;;1870351;75;20194;-66
2021/09/13 00:14:15;;;;;;;;;;;15.70;99.90;;;;;;1864519;75;20219;-67
2021/09/13 00:16:42;;;;;;;;;;;15.70;99.90;;;;;;1869183;75;20126;-67
2021/09/13 00:19:09;;;;;;;;;;;15.70;99.90;;;;;;1871903;77;20125;-67
2021/09/13 00:21:36;;;;;;;;;;;15.70;99.90;;;;;;1860761;76;20179;-67
2021/09/13 00:24:02;;;;;;;;;;;15.70;99.90;;;;;;1881751;75;20104;-67
2021/09/13 00:26:29;;;;;;;;;;;15.60;99.90;;;;;;1868584;76;20165;-67
2021/09/13 00:28:56;;;;;;;;;;;15.60;99.90;;;;;;1868252;76;20200;-67
2021/09/13 00:31:23;;;;;;;;;;;15.70;99.90;;;;;;1870512;75;20125;-67
2021/09/13 00:33:50;;;;;;;;;;;15.70;99.90;;;;;;1872182;76;20477;-67
2021/09/13 00:36:17;;;;;;;;;;;15.70;99.90;;;;;;1872844;76;20217;-67
2021/09/13 00:38:43;;;;;;;;;;;15.70;99.90;;;;;;1872400;76;20130;-67
2021/09/13 00:41:10;;;;;;;;;;;15.60;99.90;;;;;;1874365;75;20208;-67
2021/09/13 00:43:37;;;;;;;;;;;15.60;99.90;;;;;;1868952;77;20300;-67
2021/09/13 00:46:04;;;;;;;;;;;15.60;99.90;;;;;;1868433;76;20176;-66
2021/09/13 00:48:31;;;;;;;;;;;15.80;99.90;;;;;;1841064;78;20128;-67
2021/09/13 00:50:58;;;;;;;;;;;15.70;99.90;;;;;;1870951;75;20275;-67
2021/09/13 00:53:25;;;;;;;;;;;15.60;99.90;;;;;;1869331;75;20197;-66
2021/09/13 00:55:54;;;;;;;;;;;15.60;99.90;;;;;;1868817;76;20200;-66
2021/09/13 00:58:23;;;;;;;;;;;15.60;99.90;;;;;;1863423;76;20121;-67
2021/09/13 01:00:50;;;;;;;;;;;15.70;99.90;;;;;;1843862;75;20128;-67
2021/09/13 01:03:16;;;;;;;;;;;15.60;99.90;;;;;;1892284;75;20549;-67
2021/09/13 01:05:43;;;;;;;;;;;15.70;99.90;;;;;;1870470;76;20168;-67
2021/09/13 01:08:10;;;;;;;;;;;15.60;99.90;;;;;;1865820;76;20130;-67
2021/09/13 01:10:44;;;;;;;;;;;15.60;99.90;;;;;;1870660;76;20466;-67
2021/09/13 01:13:08;;;;;;;;;;;15.60;99.90;;;;;;1876380;75;20164;-67
2021/09/13 01:15:39;;;;;;;;;;;15.70;99.90;;;;;;1875382;75;20203;-67
2021/09/13 01:18:05;;;;;;;;;;;15.70;99.90;;;;;;1869126;76;20153;-67
2021/09/13 01:20:33;;;;;;;;;;;15.70;99.90;;;;;;1872190;76;20125;-67
2021/09/13 01:23:01;;;;;;;;;;;15.80;99.90;;;;;;1885461;75;20183;-67
2021/09/13 01:25:28;;;;;;;;;;;15.70;99.90;;;;;;1874163;75;20129;-67
2021/09/13 01:27:54;;;;;;;;;;;15.70;99.90;;;;;;1872296;77;20422;-67
2021/09/13 01:30:21;;;;;;;;;;;15.90;99.90;;;;;;1872359;76;20168;-67
2021/09/13 01:32:48;;;;;;;;;;;15.80;99.90;;;;;;1900779;75;20481;-67
2021/09/13 01:35:15;;;;;;;;;;;15.80;99.90;;;;;;1872136;77;20153;-67
2021/09/13 01:37:42;;;;;;;;;;;15.80;99.90;;;;;;1872468;77;20411;-67
2021/09/13 01:40:09;;;;;;;;;;;15.80;99.90;;;;;;1879804;76;20149;-67
2021/09/13 01:42:35;;;;;;;;;;;15.90;99.90;;;;;;1880145;75;20178;-67
2021/09/13 01:45:03;;;;;;;;;;;15.90;99.90;;;;;;1870155;75;20459;-67
2021/09/13 01:47:30;;;;;;;;;;;15.90;99.90;;;;;;1863084;76;20171;-67
2021/09/13 01:49:57;;;;;;;;;;;15.90;99.90;;;;;;1871301;76;20129;-67
2021/09/13 01:52:24;;;;;;;;;;;15.90;99.90;;;;;;1880143;75;20204;-66
2021/09/13 01:54:51;;;;;;;;;;;15.80;99.90;;;;;;1865322;76;20207;-67
2021/09/13 01:57:17;;;;;;;;;;;15.90;99.90;;;;;;1892520;75;20233;-67
2021/09/13 01:59:44;;;;;;;;;;;15.90;99.90;;;;;;1897849;75;20220;-67
2021/09/13 02:02:11;;;;;;;;;;;15.90;99.90;;;;;;1873207;75;20133;-67
2021/09/13 02:04:38;;;;;;;;;;;15.90;99.90;;;;;;1871064;76;20237;-67
2021/09/13 02:07:05;;;;;;;;;;;15.90;99.90;;;;;;1870599;76;20224;-67
2021/09/13 02:09:31;;;;;;;;;;;16.00;99.90;;;;;;1872427;77;20121;-67
2021/09/13 02:11:58;;;;;;;;;;;16.10;99.90;;;;;;1871777;75;20501;-67
2021/09/13 02:14:25;;;;;;;;;;;16.10;99.90;;;;;;1874664;75;20164;-67
2021/09/13 02:16:52;;;;;;;;;;;16.10;99.90;;;;;;1871690;76;20794;-67
2021/09/13 02:19:18;;;;;;;;;;;16.00;99.90;;;;;;1872873;77;20165;-67
2021/09/13 02:21:45;;;;;;;;;;;16.00;99.90;;;;;;1880278;75;20543;-67
2021/09/13 02:24:12;;;;;;;;;;;15.90;99.90;;;;;;1878838;75;20176;-66
2021/09/13 02:26:39;;;;;;;;;;;15.90;99.90;;;;;;1868203;76;20185;-67
2021/09/13 02:29:06;;;;;;;;;;;15.90;99.90;;;;;;1871005;76;20164;-67
2021/09/13 02:31:32;;;;;;;;;;;15.90;99.90;;;;;;1880322;75;20197;-66
2021/09/13 02:33:59;;;;;;;;;;;16.00;99.90;;;;;;1901060;75;20231;-67
2021/09/13 02:36:26;;;;;;;;;;;15.90;99.90;;;;;;1873315;77;20153;-66
2021/09/13 02:38:53;;;;;;;;;;;15.90;99.90;;;;;;1873195;76;20188;-67
2021/09/13 02:41:20;;;;;;;;;;;15.90;99.90;;;;;;1874071;75;20430;-67
2021/09/13 02:43:46;;;;;;;;;;;15.90;99.90;;;;;;1870207;75;20176;-67
2021/09/13 02:46:15;;;;;;;;;;;15.90;99.90;;;;;;1870808;75;20285;-67
2021/09/13 02:48:42;;;;;;;;;;;16.00;99.90;;;;;;1879608;74;20125;-67
2021/09/13 02:51:08;;;;;;;;;;;15.90;99.90;;;;;;1873668;75;20483;-67
2021/09/13 02:53:35;;;;;;;;;;;16.00;99.90;;;;;;1876337;75;20170;-67
2021/09/13 02:56:02;;;;;;;;;;;16.00;99.90;;;;;;1870523;76;20391;-67
2021/09/13 02:58:29;;;;;;;;;;;16.00;99.90;;;;;;1865656;76;20242;-67
2021/09/13 03:00:56;;;;;;;;;;;15.90;99.90;;;;;;1839489;78;20164;-66
2021/09/13 03:03:23;;;;;;;;;;;15.90;99.90;;;;;;1866292;75;20402;-67
2021/09/13 03:05:51;;;;;;;;;;;15.90;99.90;;;;;;1870662;77;20176;-66
2021/09/13 03:08:18;;;;;;;;;;;15.90;99.90;;;;;;1870945;76;20414;-66
2021/09/13 03:10:45;;;;;;;;;;;16.00;99.90;;;;;;1873472;77;20853;-66
2021/09/13 03:13:12;;;;;;;;;;;16.00;99.90;;;;;;1871162;75;20185;-66
2021/09/13 03:15:39;;;;;;;;;;;15.90;99.90;;;;;;1871739;76;20176;-66
2021/09/13 03:18:05;;;;;;;;;;;15.90;99.90;;;;;;1881757;75;20202;-66
2021/09/13 03:20:32;;;;;;;;;;;15.90;99.90;;;;;;1871504;75;20161;-66
2021/09/13 03:22:59;;;;;;;;;;;15.90;99.90;;;;;;1871816;75;20130;-66
2021/09/13 03:25:26;;;;;;;;;;;15.90;99.90;;;;;;1873545;77;20439;-66
2021/09/13 03:27:53;;;;;;;;;;;15.90;99.90;;;;;;1872292;76;20145;-67
2021/09/13 03:30:20;;;;;;;;;;;16.00;99.90;;;;;;1869762;76;20223;-67
2021/09/13 03:32:47;;;;;;;;;;;15.90;99.90;;;;;;1875702;75;20125;-67
2021/09/13 03:35:14;;;;;;;;;;;15.90;99.90;;;;;;1873073;77;20246;-67
2021/09/13 03:37:40;;;;;;;;;;;16.00;99.90;;;;;;1874043;77;20203;-67
2021/09/13 03:40:08;;;;;;;;;;;16.00;99.90;;;;;;1873999;76;20118;-66
2021/09/13 03:42:34;;;;;;;;;;;16.00;99.90;;;;;;1873651;75;20458;-66
2021/09/13 03:45:01;;;;;;;;;;;16.00;99.90;;;;;;1869470;76;20114;-68
2021/09/13 03:47:28;;;;;;;;;;;15.90;99.90;;;;;;1872820;76;20176;-68
2021/09/13 03:49:55;;;;;;;;;;;16.00;99.90;;;;;;1869963;76;20166;-68
2021/09/13 03:52:22;;;;;;;;;;;16.00;99.90;;;;;;1869077;75;20169;-68
2021/09/13 03:54:48;;;;;;;;;;;16.00;99.90;;;;;;1872238;75;20252;-68
2021/09/13 03:57:15;;;;;;;;;;;15.90;99.90;;;;;;1870116;76;20129;-68
2021/09/13 03:59:42;;;;;;;;;;;15.90;99.90;;;;;;1895895;75;20123;-68
2021/09/13 04:02:09;;;;;;;;;;;15.90;99.90;;;;;;1863472;75;20187;-68
2021/09/13 04:04:36;;;;;;;;;;;15.90;99.90;;;;;;1867148;77;20137;-68
2021/09/13 04:07:15;;;;;;;;;;;15.90;99.90;;;;;;1869319;76;20246;-68
2021/09/13 04:12:02;;;;;;;;;;;15.80;99.90;;;;;;1871976;76;20160;-68
2021/09/13 04:14:29;;;;;;;;;;;15.80;99.90;;;;;;1872153;75;20525;-68
2021/09/13 04:16:57;;;;;;;;;;;15.90;99.90;;;;;;1881298;76;20400;-68
2021/09/13 04:19:24;;;;;;;;;;;15.80;99.90;;;;;;1885385;75;20849;-68
2021/09/13 04:21:51;;;;;;;;;;;15.90;99.90;;;;;;1886964;75;20502;-68
2021/09/13 04:24:18;;;;;;;;;;;15.90;99.90;;;;;;1853141;75;20172;-68
2021/09/13 04:26:45;;;;;;;;;;;15.90;99.90;;;;;;1871849;76;20164;-68
2021/09/13 04:29:12;;;;;;;;;;;15.90;99.90;;;;;;1870511;75;20110;-68
2021/09/13 04:31:39;;;;;;;;;;;16.00;99.90;;;;;;1882228;75;20171;-68
2021/09/13 04:34:06;;;;;;;;;;;16.00;99.90;;;;;;1888415;75;20394;-68
2021/09/13 04:36:33;;;;;;;;;;;16.10;99.90;;;;;;1868470;77;20385;-66
2021/09/13 04:39:00;;;;;;;;;;;16.10;99.90;;;;;;1870048;75;20165;-67
2021/09/13 04:41:27;;;;;;;;;;;16.10;99.90;;;;;;1871483;75;20114;-66
2021/09/13 04:43:54;;;;;;;;;;;16.10;99.90;;;;;;1865748;75;20121;-65
2021/09/13 04:46:22;;;;;;;;;;;16.10;99.90;;;;;;1872100;77;20184;-66
2021/09/13 04:48:48;;;;;;;;;;;16.10;99.90;;;;;;1880344;75;20436;-66
2021/09/13 04:51:16;;;;;;;;;;;16.10;99.90;;;;;;1870159;77;20184;-66
2021/09/13 04:53:43;;;;;;;;;;;16.10;99.90;;;;;;1870679;76;20177;-66
2021/09/13 04:56:10;;;;;;;;;;;16.00;99.90;;;;;;1869961;76;20263;-66
2021/09/13 04:58:36;;;;;;;;;;;16.00;99.90;;;;;;1870232;75;20490;-66
2021/09/13 05:01:07;;;;;;;;;;;16.00;99.90;;;;;;1873137;75;20153;-66
2021/09/13 05:03:32;;;;;;;;;;;16.00;99.90;;;;;;1854797;76;20169;-66
2021/09/13 05:05:59;;;;;;;;;;;16.00;99.90;;;;;;1870322;76;20114;-66
2021/09/13 05:08:26;;;;;;;;;;;16.10;99.90;;;;;;1878990;75;20281;-66
2021/09/13 05:10:53;;;;;;;;;;;16.10;99.90;;;;;;1869288;76;20228;-66
2021/09/13 05:13:19;;;;;;;;;;;16.20;99.90;;;;;;1873439;76;20230;-66
2021/09/13 05:15:46;;;;;;;;;;;16.10;99.90;;;;;;1869312;75;20226;-66
2021/09/13 05:18:13;;;;;;;;;;;16.10;99.90;;;;;;1868515;75;20153;-66
2021/09/13 05:20:40;;;;;;;;;;;16.00;99.90;;;;;;1880136;75;20266;-66
2021/09/13 05:23:07;;;;;;;;;;;16.00;99.90;;;;;;1867950;76;20173;-66
2021/09/13 05:25:33;;;;;;;;;;;16.00;99.90;;;;;;1870917;75;20164;-66
2021/09/13 05:28:00;;;;;;;;;;;16.00;99.90;;;;;;1871191;76;20222;-66
2021/09/13 05:30:27;;;;;;;;;;;16.00;99.90;;;;;;1874076;75;20475;-66
2021/09/13 05:32:54;;;;;;;;;;;16.00;99.90;;;;;;1868679;75;20114;-66
2021/09/13 05:35:21;;;;;;;;;;;16.00;99.90;;;;;;1867125;75;20192;-65
2021/09/13 05:37:47;;;;;;;;;;;16.00;99.90;;;;;;1872816;76;20176;-66
2021/09/13 05:40:14;;;;;;;;;;;16.00;99.90;;;;;;1872520;75;20222;-66
2021/09/13 05:42:41;;;;;;;;;;;16.10;99.90;;;;;;1872201;77;20495;-66
2021/09/13 05:45:08;;;;;;;;;;;16.10;99.90;;;;;;1867481;75;20121;-66
2021/09/13 05:47:35;;;;;;;;;;;16.10;99.90;;;;;;1872955;75;20168;-68
2021/09/13 05:50:02;;;;;;;;;;;16.00;99.90;;;;;;1875376;75;20118;-68
2021/09/13 05:52:29;;;;;;;;;;;16.10;99.90;;;;;;1872255;77;20235;-68
2021/09/13 05:54:56;;;;;;;;;;;16.10;99.90;;;;;;1872291;77;20121;-67
2021/09/13 05:57:23;;;;;;;;;;;16.10;99.90;;;;;;1873877;75;20449;-66
2021/09/13 05:59:49;;;;;;;;;;;16.20;99.90;;;;;;1874884;75;20208;-66
2021/09/13 06:02:17;;;;;;;;;;;16.10;99.90;;;;;;1869735;76;20331;-66
2021/09/13 06:04:44;;;;;;;;;;;16.10;99.90;;;;;;1872639;77;20505;-66
2021/09/13 06:07:11;;;;;;;;;;;16.00;99.90;;;;;;1875456;75;20225;-70
2021/09/13 06:09:38;;;;;;;;;;;16.00;99.90;;;;;;1869770;75;20145;-65
2021/09/13 06:12:05;;;;;;;;;;;16.00;99.90;;;;;;1870612;75;20121;-66
2021/09/13 06:14:32;;;;;;;;;;;16.10;99.90;;;;;;1851759;75;20201;-65
2021/09/13 06:16:59;;;;;;;;;;;16.00;99.90;;;;;;1871401;76;20188;-65
2021/09/13 06:19:26;;;;;;;;;;;16.20;99.90;;;;;;1873220;76;20199;-66
2021/09/13 06:21:53;;;;;;;;;;;16.20;99.90;;;;;;1874959;75;20130;-65
2021/09/13 06:24:20;;;;;;;;;;;16.30;99.90;;;;;;1876500;75;20174;-66
2021/09/13 06:26:46;;;;;;;;;;;16.30;99.90;;;;;;1878776;75;20187;-66
2021/09/13 06:29:14;;;;;;;;;;;16.40;99.90;;;;;;1871058;77;20160;-66
2021/09/13 06:31:42;;;;;;;;;;;16.50;99.90;;;;;;1882881;75;20195;-67
2021/09/13 06:34:11;;;;;;;;;;;16.50;99.90;;;;;;1874759;75;20485;-66
2021/09/13 06:36:37;;;;;;;;;;;16.40;99.90;;;;;;1862915;76;20178;-66
2021/09/13 06:39:04;;;;;;;;;;;16.50;99.90;;;;;;1844462;75;21024;-66
2021/09/13 06:41:31;;;;;;;;;;;16.40;99.90;;;;;;1874261;75;20186;-67
2021/09/13 06:43:58;;;;;;;;;;;16.40;99.90;;;;;;1874444;75;20118;-69
2021/09/13 06:46:33;;;;;;;;;;;16.50;99.90;;;;;;1863811;75;20473;-68
2021/09/13 06:48:53;;;;;;;;;;;16.50;99.90;;;;;;1872632;76;20173;-66
2021/09/13 06:51:20;;;;;;;;;;;16.50;99.90;;;;;;1870303;75;20196;-70
2021/09/13 06:53:47;;;;;;;;;;;16.50;99.90;;;;;;1863564;76;20175;-65
2021/09/13 06:56:14;;;;;;;;;;;16.50;99.90;;;;;;1866630;76;20144;-66
2021/09/13 06:58:40;;;;;;;;;;;16.50;99.90;;;;;;1876504;75;20317;-65
2021/09/13 07:01:07;;;;;;;;;;;16.50;99.90;;;;;;1869445;75;20885;-64
2021/09/13 07:03:37;;;;;;;;;;;16.50;99.90;;;;;;1874154;75;20221;-64
2021/09/13 07:06:04;;;;;;;;;;;16.60;99.90;;;;;;1877766;75;20168;-64
2021/09/13 07:08:31;;;;;;;;;;;16.70;99.90;;;;;;1865792;75;20192;-64
2021/09/13 07:10:59;;;;;;;;;;;16.60;99.90;;;;;;1867174;75;20407;-64
2021/09/13 07:13:26;;;;;;;;;;;16.60;99.90;;;;;;1873159;75;20208;-65
2021/09/13 07:15:52;;;;;;;;;;;16.70;99.90;;;;;;1864655;75;20402;-64
2021/09/13 07:18:19;;;;;;;;;;;16.80;99.90;;;;;;1871969;75;20196;-65
2021/09/13 07:20:46;;;;;;;;;;;16.80;99.90;;;;;;1858060;76;20436;-65
2021/09/13 07:23:13;;;;;;;;;;;16.90;99.90;;;;;;1866479;75;20161;-65
2021/09/13 07:25:40;;;;;;;;;;;17.00;99.90;;;;;;1878059;75;20180;-65
2021/09/13 07:28:06;;;;;;;;;;;17.00;99.90;;;;;;1871802;75;20233;-65
2021/09/13 07:30:33;;;;;;;;;;;17.00;99.90;;;;;;1870076;76;20184;-64
2021/09/13 07:33:00;;;;;;;;;;;17.10;99.90;;;;;;1871382;76;20176;-65
2021/09/13 07:35:27;;;;;;;;;;;17.10;99.90;;;;;;1871939;75;20118;-65
2021/09/13 07:37:54;;;;;;;;;;;17.10;99.90;;;;;;1873792;75;20185;-65
2021/09/13 07:40:21;;;;;;;;;;;17.10;99.90;;;;;;1871186;75;20173;-65
2021/09/13 07:42:49;;;;;;;;;;;17.10;99.90;;;;;;1869119;77;20225;-65
2021/09/13 07:45:15;;;;;;;;;;;17.10;99.90;;;;;;1876609;75;20182;-65
2021/09/13 07:47:42;;;;;;;;;;;17.10;99.90;;;;;;1873917;75;20161;-66
2021/09/13 07:50:09;;;;;;;;;;;17.30;99.90;;;;;;1872381;75;20226;-66
2021/09/13 07:52:37;;;;;;;;;;;17.30;99.90;;;;;;1872132;75;20211;-67
2021/09/13 07:55:04;;;;;;;;;;;17.40;99.90;;;;;;1873318;76;20188;-66
2021/09/13 07:57:31;;;;;;;;;;;17.50;99.90;;;;;;1870791;76;20129;-66
2021/09/13 07:59:58;;;;;;;;;;;17.50;99.90;;;;;;1875162;75;20168;-65
2021/09/13 08:02:25;;;;;;;;;;;17.40;99.90;;;;;;1893147;75;20313;-65
2021/09/13 08:04:52;;;;;;;;;;;17.40;99.90;;;;;;1902438;75;20203;-65
2021/09/13 08:07:19;;;;;;;;;;;17.40;99.90;;;;;;1876684;75;20182;-66
2021/09/13 08:09:46;;;;;;;;;;;17.50;99.90;;;;;;1899839;75;20119;-65
2021/09/13 08:12:12;;;;;;;;;;;17.50;99.90;;;;;;1887643;75;20206;-66
2021/09/13 08:14:39;;;;;;;;;;;17.50;99.90;;;;;;1878134;75;20201;-65
2021/09/13 08:17:06;;;;;;;;;;;17.50;99.90;;;;;;1878219;75;20331;-65
2021/09/13 08:19:33;;;;;;;;;;;17.50;99.90;;;;;;1879430;75;20206;-66
2021/09/13 08:22:00;;;;;;;;;;;17.50;99.90;;;;;;1884630;75;20456;-70
2021/09/13 08:24:27;;;;;;;;;;;17.50;99.90;;;;;;1885016;75;20493;-66
2021/09/13 08:26:54;;;;;;;;;;;17.60;99.90;;;;;;1881037;75;20119;-65
2021/09/13 08:29:22;;;;;;;;;;;17.60;99.90;;;;;;1873880;75;20503;-69
2021/09/13 08:31:49;;;;;;;;;;;17.60;99.90;;;;;;1872322;75;20173;-70
2021/09/13 08:34:17;;;;;;;;;;;17.60;99.90;;;;;;1877656;75;20437;-69
2021/09/13 08:36:44;;;;;;;;;;;17.70;99.90;;;;;;1887087;75;20489;-66
2021/09/13 08:39:13;;;;;;;;;;;17.70;99.90;;;;;;1874635;75;20173;-66
2021/09/13 08:41:41;;;;;;;;;;;17.70;99.90;;;;;;1872252;77;20465;-66
2021/09/13 08:44:08;;;;;;;;;;;17.80;99.90;;;;;;1881777;75;20526;-67
2021/09/13 08:46:44;;;;;;;;;;;17.90;99.90;;;;;;1901931;75;20136;-65
2021/09/13 08:49:09;;;;;;;;;;;17.90;99.90;;;;;;1889587;75;20182;-67
2021/09/13 08:51:35;;;;;;;;;;;17.90;99.90;;;;;;1878060;75;20261;-67
2021/09/13 08:54:08;;;;;;;;;;;17.90;99.90;;;;;;1878291;75;20241;-66
2021/09/13 08:56:40;;;;;;;;;;;17.90;99.90;;;;;;1880046;75;20185;-66
2021/09/13 08:59:05;;;;;;;;;;;17.90;99.90;;;;;;1866777;75;20165;-68
2021/09/13 09:01:32;;;;;;;;;;;18.00;99.90;;;;;;1875343;75;20309;-67
2021/09/13 09:03:59;;;;;;;;;;;18.00;99.90;;;;;;1871702;75;20379;-68
2021/09/13 09:06:30;;;;;;;;;;;18.00;99.90;;;;;;1871595;76;20238;-67
2021/09/13 09:09:00;;;;;;;;;;;17.90;99.90;;;;;;1865734;76;20424;-67
2021/09/13 09:11:29;;;;;;;;;;;18.00;99.90;;;;;;1882958;75;20171;-68
2021/09/13 09:13:56;;;;;;;;;;;18.00;99.90;;;;;;1868677;75;20189;-67
2021/09/13 09:16:23;;;;;;;;;;;18.00;99.90;;;;;;1870139;76;20188;-68
2021/09/13 09:18:52;;;;;;;;;;;18.10;99.90;;;;;;1868299;76;20172;-68
2021/09/13 09:21:29;;;;;;;;;;;18.20;99.90;;;;;;1879919;75;20495;-68
2021/09/13 09:23:57;;;;;;;;;;;18.20;99.90;;;;;;1875611;75;20188;-67
2021/09/13 09:26:24;;;;;;;;;;;18.20;99.90;;;;;;1871652;76;20164;-67
2021/09/13 09:28:51;;;;;;;;;;;18.30;99.90;;;;;;1863871;76;20116;-67
2021/09/13 09:31:35;;;;;;;;;;;18.30;99.90;;;;;;1886222;75;20240;-68
2021/09/13 09:34:15;;;;;;;;;;;18.20;99.90;;;;;;1836816;78;20175;-68
2021/09/13 09:36:44;;;;;;;;;;;18.20;99.90;;;;;;1865592;75;20492;-67
2021/09/13 09:39:14;;;;;;;;;;;18.20;99.90;;;;;;1879163;75;20245;-67
2021/09/13 09:41:44;;;;;;;;;;;18.20;99.90;;;;;;1884708;75;20469;-68
2021/09/13 09:44:11;;;;;;;;;;;18.20;99.90;;;;;;1879957;75;20209;-67
2021/09/13 09:46:42;;;;;;;;;;;18.20;99.90;;;;;;1885239;75;20114;-67
2021/09/13 09:49:10;;;;;;;;;;;18.00;99.90;;;;;;1897209;75;20222;-68
2021/09/13 09:51:42;;;;;;;;;;;18.10;99.90;;;;;;1873837;75;20211;-69
2021/09/13 09:54:13;;;;;;;;;;;18.10;99.90;;;;;;1869910;75;20475;-68
2021/09/13 09:56:41;;;;;;;;;;;18.20;99.90;;;;;;1871453;75;20429;-68
2021/09/13 09:59:10;;;;;;;;;;;18.20;99.90;;;;;;1871057;76;20455;-68
2021/09/13 10:01:44;;;;;;;;;;;18.20;99.90;;;;;;1882774;75;20606;-68
2021/09/13 10:04:18;;;;;;;;;;;18.20;99.90;;;;;;1878688;75;20258;-69
2021/09/13 10:06:47;;;;;;;;;;;18.10;99.90;;;;;;1871381;75;20609;-68
2021/09/13 10:09:14;;;;;;;;;;;18.10;99.90;;;;;;1869810;75;20465;-68
2021/09/13 10:11:42;;;;;;;;;;;18.10;99.90;;;;;;1858407;75;20608;-68
2021/09/13 10:14:10;;;;;;;;;;;18.00;99.90;;;;;;1872589;76;20114;-67
2021/09/13 10:16:37;;;;;;;;;;;17.90;99.90;;;;;;1869721;75;20169;-67
2021/09/13 10:19:05;;;;;;;;;;;18.00;99.90;;;;;;1871586;75;20156;-67
2021/09/13 10:21:32;;;;;;;;;;;18.00;99.90;;;;;;1860914;75;20152;-67
2021/09/13 10:24:00;;;;;;;;;;;18.10;99.90;;;;;;1867601;75;20169;-67
2021/09/13 10:26:27;;;;;;;;;;;18.30;99.90;;;;;;1870412;76;20172;-67
2021/09/13 10:29:04;;;;;;;;;;;18.50;99.90;;;;;;1869341;75;20172;-67
2021/09/13 10:31:46;;;;;;;;;;;18.70;99.90;;;;;;1873254;75;20172;-67
2021/09/13 10:34:17;;;;;;;;;;;18.80;99.90;;;;;;1869546;76;20165;-67
2021/09/13 10:37:01;;;;;;;;;;;18.80;99.90;;;;;;1868955;76;20169;-67
2021/09/13 10:39:45;;;;;;;;;;;18.80;99.90;;;;;;1868798;75;20496;-68
2021/09/13 10:42:31;;;;;;;;;;;18.60;99.90;;;;;;1866821;75;20226;-68
2021/09/13 10:45:11;;;;;;;;;;;18.50;99.90;;;;;;1876630;75;20396;-67
2021/09/13 10:47:39;;;;;;;;;;;18.40;99.90;;;;;;1849498;75;20116;-67
2021/09/13 10:50:16;;;;;;;;;;;18.30;99.90;;;;;;1867496;76;20157;-67
2021/09/13 10:52:44;;;;;;;;;;;18.30;99.90;;;;;;1870134;76;20156;-68
2021/09/13 10:55:12;;;;;;;;;;;18.20;99.90;;;;;;1866323;76;20367;-66
2021/09/13 10:57:57;;;;;;;;;;;18.20;99.90;;;;;;1869263;76;20237;-67
2021/09/13 11:00:45;;;;;;;;;;;18.10;99.90;;;;;;1863441;75;20173;-67
2021/09/13 11:03:28;;;;;;;;;;;18.10;99.90;;;;;;1873019;75;20420;-67
2021/09/13 11:06:05;;;;;;;;;;;18.10;99.90;;;;;;1869984;75;20221;-67
2021/09/13 11:08:34;;;;;;;;;;;18.20;99.90;;;;;;1886563;75;20243;-66
2021/09/13 11:11:01;;;;;;;;;;;18.30;99.90;;;;;;1870146;75;20203;-66
2021/09/13 11:13:27;;;;;;;;;;;18.40;99.90;;;;;;1870912;75;20174;-66
2021/09/13 11:15:54;;;;;;;;;;;18.40;99.90;;;;;;1882300;75;20184;-65
2021/09/13 11:18:37;;;;;;;;;;;18.40;99.90;;;;;;1875896;75;20205;-65
2021/09/13 11:21:14;;;;;;;;;;;18.30;99.90;;;;;;1901230;75;20108;-66
2021/09/13 11:23:42;;;;;;;;;;;18.20;99.90;;;;;;1872734;75;20242;-66
2021/09/13 11:26:09;;;;;;;;;;;18.10;99.90;;;;;;1870733;75;20431;-65
2021/09/13 11:28:52;;;;;;;;;;;18.10;99.90;;;;;;1874577;75;20130;-65
2021/09/13 11:31:26;;;;;;;;;;;18.10;99.90;;;;;;1875873;75;20203;-65
2021/09/13 11:33:54;;;;;;;;;;;18.10;99.90;;;;;;1860721;75;20180;-66
2021/09/13 11:36:22;;;;;;;;;;;18.10;99.90;;;;;;1864125;75;20165;-66
2021/09/13 11:39:02;;;;;;;;;;;18.10;99.90;;;;;;1866379;75;20234;-65
2021/09/13 11:41:30;;;;;;;;;;;18.20;99.90;;;;;;1848690;75;20167;-65
2021/09/13 11:44:00;;;;;;;;;;;18.30;99.90;;;;;;1859309;77;20127;-65
2021/09/13 11:46:27;;;;;;;;;;;18.40;99.90;;;;;;1864019;76;20482;-66
2021/09/13 11:48:54;;;;;;;;;;;18.50;99.90;;;;;;1867971;76;20239;-65
2021/09/13 11:51:21;;;;;;;;;;;18.50;99.90;;;;;;1867303;75;20185;-65
2021/09/13 11:54:06;;;;;;;;;;;18.50;99.90;;;;;;1861895;75;20210;-65
2021/09/13 11:56:33;;;;;;;;;;;18.60;99.90;;;;;;1857151;75;20226;-66
2021/09/13 11:58:59;;;;;;;;;;;18.70;99.90;;;;;;1856026;75;20188;-65
2021/09/13 12:01:28;;;;;;;;;;;18.60;99.90;;;;;;1863982;75;20526;-65
2021/09/13 12:03:55;;;;;;;;;;;18.60;99.90;;;;;;1870774;75;20118;-65
2021/09/13 12:06:22;;;;;;;;;;;18.70;99.90;;;;;;1869134;75;20308;-66
2021/09/13 12:08:48;;;;;;;;;;;18.60;99.90;;;;;;1864568;76;20236;-65
2021/09/13 12:11:15;;;;;;;;;;;18.60;99.90;;;;;;1859830;76;20248;-66
2021/09/13 12:13:43;;;;;;;;;;;18.60;99.90;;;;;;1857727;76;20303;-65
2021/09/13 12:16:10;;;;;;;;;;;18.60;99.90;;;;;;1857971;76;20164;-66
2021/09/13 12:18:36;;;;;;;;;;;18.60;99.90;;;;;;1864600;76;20246;-67
2021/09/13 12:21:03;;;;;;;;;;;18.70;99.90;;;;;;1864972;75;20266;-67
2021/09/13 12:23:38;;;;;;;;;;;18.70;99.90;;;;;;1859870;76;20299;-67
2021/09/13 12:26:03;;;;;;;;;;;18.70;99.90;;;;;;1859654;76;20218;-68
2021/09/13 12:28:33;;;;;;;;;;;18.80;99.90;;;;;;1860663;75;20267;-68
2021/09/13 12:31:01;;;;;;;;;;;18.80;99.90;;;;;;1867911;75;20117;-67
2021/09/13 12:33:41;;;;;;;;;;;18.80;99.90;;;;;;1855228;76;20137;-67
2021/09/13 12:36:21;;;;;;;;;;;18.80;99.90;;;;;;1864720;75;20180;-67
2021/09/13 12:38:49;;;;;;;;;;;18.90;99.90;;;;;;1862461;76;20130;-67
2021/09/13 12:41:16;;;;;;;;;;;19.10;99.90;;;;;;1871740;75;20200;-68
2021/09/13 12:43:47;;;;;;;;;;;19.10;99.90;;;;;;1866575;75;20438;-67
2021/09/13 12:46:15;;;;;;;;;;;19.10;99.90;;;;;;1861960;75;20176;-68
2021/09/13 12:48:46;;;;;;;;;;;19.10;99.90;;;;;;1865730;76;20181;-68
2021/09/13 12:51:23;;;;;;;;;;;19.30;99.90;;;;;;1865223;75;20552;-67
2021/09/13 12:54:00;;;;;;;;;;;19.40;99.90;;;;;;1864120;76;20209;-67
2021/09/13 12:56:27;;;;;;;;;;;19.30;99.90;;;;;;1864762;75;20125;-68
2021/09/13 12:58:58;;;;;;;;;;;19.30;99.90;;;;;;1866302;76;20170;-68
2021/09/13 13:01:31;;;;;;;;;;;19.20;99.90;;;;;;1861953;75;20203;-68
2021/09/13 13:03:59;;;;;;;;;;;19.30;99.90;;;;;;1868272;76;20126;-68
2021/09/13 13:06:26;;;;;;;;;;;19.40;99.90;;;;;;1862458;76;20159;-68
2021/09/13 13:08:53;;;;;;;;;;;19.50;99.90;;;;;;1863458;76;20136;-68
2021/09/13 13:11:19;;;;;;;;;;;19.50;99.90;;;;;;1867230;75;20200;-68
2021/09/13 13:13:46;;;;;;;;;;;19.70;99.90;;;;;;1866982;75;20161;-67
2021/09/13 13:16:14;;;;;;;;;;;19.70;99.90;;;;;;1865007;75;20227;-66
2021/09/13 13:18:41;;;;;;;;;;;19.60;99.90;;;;;;1863586;75;20163;-66
2021/09/13 13:21:08;;;;;;;;;;;19.60;99.90;;;;;;1865050;76;20185;-68
2021/09/13 13:23:34;;;;;;;;;;;19.90;99.90;;;;;;1861902;75;20183;-67
2021/09/13 13:26:01;;;;;;;;;;;20.00;99.90;;;;;;1861744;76;20639;-67
2021/09/13 13:28:29;;;;;;;;;;;20.00;99.90;;;;;;1865492;75;20217;-67
2021/09/13 13:30:56;;;;;;;;;;;19.90;99.90;;;;;;1869713;75;20173;-67
2021/09/13 13:33:22;;;;;;;;;;;19.90;99.90;;;;;;1870134;75;20207;-67
2021/09/13 13:35:49;;;;;;;;;;;19.80;99.90;;;;;;1869411;75;20137;-67
2021/09/13 13:38:16;;;;;;;;;;;19.70;99.90;;;;;;1874436;75;20231;-67
2021/09/13 13:40:43;;;;;;;;;;;19.70;99.90;;;;;;1865511;75;20166;-72
2021/09/13 13:43:10;;;;;;;;;;;19.60;99.90;;;;;;1878117;75;20107;-67
2021/09/13 13:45:36;;;;;;;;;;;19.60;99.90;;;;;;1870329;76;20188;-67
2021/09/13 13:48:03;;;;;;;;;;;19.60;99.90;;;;;;1873026;75;20130;-68
2021/09/13 13:50:30;;;;;;;;;;;19.70;99.90;;;;;;1873526;77;20456;-67
2021/09/13 13:52:57;;;;;;;;;;;19.60;99.90;;;;;;1867786;76;20165;-67
2021/09/13 13:55:24;;;;;;;;;;;19.50;99.90;;;;;;1872438;77;20356;-67
2021/09/13 13:57:51;;;;;;;;;;;19.50;99.90;;;;;;1879454;75;20189;-67
2021/09/13 14:00:19;;;;;;;;;;;19.50;99.90;;;;;;1874632;75;20160;-67
2021/09/13 14:02:46;;;;;;;;;;;19.50;99.90;;;;;;1894324;75;20129;-67
2021/09/13 14:05:13;;;;;;;;;;;19.40;99.90;;;;;;1872109;75;20283;-67
2021/09/13 14:07:39;;;;;;;;;;;19.40;99.90;;;;;;1872724;75;20199;-67
2021/09/13 14:10:08;;;;;;;;;;;19.40;99.90;;;;;;1870810;75;20408;-69
2021/09/13 14:12:35;;;;;;;;;;;19.40;99.90;;;;;;1873388;75;20118;-67
2021/09/13 14:15:02;;;;;;;;;;;19.40;99.90;;;;;;1865840;76;20153;-67
2021/09/13 14:17:30;;;;;;;;;;;19.40;99.90;;;;;;1868060;75;20434;-68
2021/09/13 14:19:57;;;;;;;;;;;19.30;99.90;;;;;;1840752;78;20456;-68
2021/09/13 14:22:24;;;;;;;;;;;19.30;99.90;;;;;;1871390;75;20227;-68
2021/09/13 14:24:51;;;;;;;;;;;19.30;99.90;;;;;;1866772;75;20227;-68